Time;durP1;ratioP1;P1;durP2;ratioP2;P2;SDS_P1;SDS_P2;PMS_P1;PMS_P2;Temp;Humidity;BMP_temperature;BMP_pressure;BME280_temperature;BME280_humidity;BME280_pressure;Samples;Min_cycle;Max_cycle;Signal;HPM_P1;HPM_P2
2021/05/23 00:00:37;;;;;;;8.00;1.80;;;8.30;95.40;;;;;;5028290;28;20498;-70
2021/05/23 00:03:09;;;;;;;9.73;1.90;;;8.30;95.50;;;;;;5030378;28;20577;-70
2021/05/23 00:05:38;;;;;;;7.55;1.45;;;8.30;95.60;;;;;;5025466;28;20041;-70
2021/05/23 00:08:09;;;;;;;12.05;1.95;;;8.30;95.60;;;;;;5036400;28;20057;-70
2021/05/23 00:10:57;;;;;;;8.38;1.27;;;8.30;95.60;;;;;;5022001;28;20049;-70
2021/05/23 00:13:29;;;;;;;10.48;2.70;;;8.30;95.60;;;;;;5029595;28;20064;-70
2021/05/23 00:16:08;;;;;;;7.63;1.50;;;8.20;95.70;;;;;;5021277;28;20054;-70
2021/05/23 00:18:38;;;;;;;10.13;1.77;;;8.20;95.70;;;;;;5038392;28;20037;-70
2021/05/23 00:21:05;;;;;;;6.78;1.52;;;8.10;95.80;;;;;;5021598;28;20508;-70
2021/05/23 00:23:31;;;;;;;6.70;1.55;;;8.00;95.80;;;;;;5028548;28;20413;-70
2021/05/23 00:25:57;;;;;;;8.25;2.38;;;8.00;95.80;;;;;;5027919;28;20116;-70
2021/05/23 00:28:24;;;;;;;7.03;1.60;;;7.90;95.80;;;;;;5029394;28;20497;-70
2021/05/23 00:30:50;;;;;;;13.38;1.85;;;7.90;95.90;;;;;;5026477;28;20069;-70
2021/05/23 00:33:17;;;;;;;9.45;2.30;;;7.80;95.90;;;;;;5031529;28;20544;-70
2021/05/23 00:35:43;;;;;;;6.32;1.80;;;7.70;95.90;;;;;;5025887;28;20147;-70
2021/05/23 00:38:09;;;;;;;7.63;2.10;;;7.60;96.00;;;;;;5031883;28;20064;-70
2021/05/23 00:40:36;;;;;;;6.57;1.77;;;7.60;96.00;;;;;;5027806;28;20044;-70
2021/05/23 00:43:11;;;;;;;4.97;2.00;;;7.50;96.10;;;;;;5025951;28;20033;-70
2021/05/23 00:45:38;;;;;;;9.90;2.10;;;7.40;96.40;;;;;;5026861;28;20040;-69
2021/05/23 00:48:04;;;;;;;8.65;1.88;;;7.40;96.20;;;;;;5023611;28;20037;-69
2021/05/23 00:50:30;;;;;;;9.18;1.90;;;7.30;96.40;;;;;;5029203;28;20029;-70
2021/05/23 00:52:58;;;;;;;8.50;1.80;;;7.20;96.40;;;;;;5022914;28;20118;-70
2021/05/23 00:55:24;;;;;;;7.55;1.88;;;7.10;96.40;;;;;;5026808;28;20514;-69
2021/05/23 00:57:50;;;;;;;7.57;1.73;;;7.10;96.60;;;;;;5018335;28;20124;-70
2021/05/23 01:00:39;;;;;;;7.45;1.55;;;7.00;96.60;;;;;;5041457;28;20037;-70
2021/05/23 01:03:28;;;;;;;6.68;1.63;;;6.90;96.60;;;;;;5029323;28;20561;-70
2021/05/23 01:06:04;;;;;;;7.72;1.50;;;6.90;96.70;;;;;;5033606;28;20064;-70
2021/05/23 01:08:31;;;;;;;9.35;1.92;;;6.80;96.80;;;;;;5014923;28;20041;-70
2021/05/23 01:11:15;;;;;;;5.60;1.65;;;6.70;96.90;;;;;;5030369;28;20037;-70
2021/05/23 01:13:46;;;;;;;9.13;1.70;;;6.70;97.00;;;;;;5017615;28;20044;-70
2021/05/23 01:16:17;;;;;;;6.65;1.55;;;6.60;97.10;;;;;;5030849;28;20397;-70
2021/05/23 01:18:49;;;;;;;11.75;1.92;;;6.60;97.20;;;;;;5023159;28;20038;-70
2021/05/23 01:21:18;;;;;;;5.20;1.80;;;6.60;97.30;;;;;;5027497;28;20037;-70
2021/05/23 01:23:52;;;;;;;9.25;1.77;;;6.60;97.40;;;;;;5025562;28;20052;-70
2021/05/23 01:26:19;;;;;;;11.60;2.15;;;6.50;97.40;;;;;;5030792;28;20030;-70
2021/05/23 01:28:52;;;;;;;8.70;2.30;;;6.50;97.50;;;;;;5026265;28;20041;-70
2021/05/23 01:31:20;;;;;;;7.45;2.65;;;6.50;97.60;;;;;;5030676;28;20404;-70
2021/05/23 01:33:54;;;;;;;8.43;2.10;;;6.40;97.50;;;;;;5023523;28;20037;-70
2021/05/23 01:36:27;;;;;;;11.40;2.03;;;6.40;97.60;;;;;;5030209;28;20547;-70
2021/05/23 01:38:54;;;;;;;10.38;2.28;;;6.40;97.70;;;;;;5019852;28;20045;-70
2021/05/23 01:41:21;;;;;;;8.57;1.88;;;6.30;97.70;;;;;;5033433;28;20049;-70
2021/05/23 01:43:47;;;;;;;12.45;2.50;;;6.30;97.90;;;;;;5024621;28;20132;-70
2021/05/23 01:46:16;;;;;;;8.80;2.10;;;6.20;97.90;;;;;;5022825;28;20505;-70
2021/05/23 01:48:42;;;;;;;9.13;3.58;;;6.20;98.00;;;;;;5022676;28;20120;-70
2021/05/23 01:51:08;;;;;;;9.05;2.25;;;6.20;98.00;;;;;;5032782;28;20465;-70
2021/05/23 01:53:36;;;;;;;9.57;2.50;;;6.10;98.10;;;;;;5022265;28;20030;-70
2021/05/23 01:56:04;;;;;;;10.10;2.60;;;6.10;98.20;;;;;;5026011;28;20107;-70
2021/05/23 01:58:30;;;;;;;12.55;3.30;;;6.10;98.30;;;;;;5028787;28;20037;-70
2021/05/23 02:00:56;;;;;;;11.98;2.80;;;6.10;98.40;;;;;;5015867;28;20048;-70
2021/05/23 02:03:24;;;;;;;8.20;2.47;;;6.10;98.50;;;;;;5028503;28;20091;-70
2021/05/23 02:05:55;;;;;;;10.57;2.08;;;6.10;98.60;;;;;;5022933;28;20501;-70
2021/05/23 02:08:24;;;;;;;12.65;2.70;;;6.10;98.60;;;;;;5030232;28;20043;-70
2021/05/23 02:10:53;;;;;;;10.57;2.33;;;6.10;98.60;;;;;;5021539;28;20040;-70
2021/05/23 02:13:19;;;;;;;12.68;2.88;;;6.10;98.60;;;;;;5028846;28;20096;-70
2021/05/23 02:15:45;;;;;;;11.15;2.15;;;6.00;98.60;;;;;;5021920;28;20038;-70
2021/05/23 02:18:12;;;;;;;13.13;2.17;;;6.10;98.70;;;;;;5034071;28;20048;-70
2021/05/23 02:20:38;;;;;;;7.15;2.35;;;6.10;98.80;;;;;;5026940;28;20297;-70
2021/05/23 02:23:11;;;;;;;11.73;3.50;;;6.00;98.80;;;;;;5028221;28;20425;-70
2021/05/23 02:25:37;;;;;;;11.35;3.63;;;6.10;98.90;;;;;;5021644;28;20037;-70
2021/05/23 02:28:05;;;;;;;10.68;2.95;;;6.10;98.90;;;;;;5038366;28;20107;-70
2021/05/23 02:30:34;;;;;;;10.05;3.40;;;6.00;98.90;;;;;;5017382;28;20049;-70
2021/05/23 02:33:02;;;;;;;9.90;2.88;;;6.00;98.90;;;;;;5030513;28;20045;-70
2021/05/23 02:35:29;;;;;;;10.25;2.80;;;6.00;98.90;;;;;;5024679;28;20044;-70
2021/05/23 02:37:55;;;;;;;9.35;2.53;;;6.00;98.90;;;;;;5020597;28;20079;-70
2021/05/23 02:40:24;;;;;;;10.18;2.60;;;5.90;98.90;;;;;;5019316;28;20552;-70
2021/05/23 02:42:50;;;;;;;11.15;2.30;;;5.90;98.90;;;;;;5032853;28;20041;-70
2021/05/23 02:45:18;;;;;;;9.48;2.40;;;5.90;98.90;;;;;;5026801;28;21444;-70
2021/05/23 02:47:46;;;;;;;10.82;2.72;;;5.90;98.90;;;;;;5021813;28;20065;-70
2021/05/23 02:50:14;;;;;;;9.93;2.60;;;5.90;98.90;;;;;;5030592;28;20050;-70
2021/05/23 02:52:40;;;;;;;8.45;2.20;;;5.80;98.90;;;;;;5027601;28;20533;-70
2021/05/23 02:55:07;;;;;;;7.22;2.45;;;5.80;99.00;;;;;;5030374;28;20060;-70
2021/05/23 02:57:35;;;;;;;11.85;2.80;;;5.70;99.00;;;;;;5020372;28;20302;-70
2021/05/23 03:00:01;;;;;;;8.60;2.47;;;5.70;99.00;;;;;;5032044;28;20039;-70
2021/05/23 03:02:27;;;;;;;6.82;2.53;;;5.70;99.10;;;;;;5023079;28;20116;-70
2021/05/23 03:04:54;;;;;;;10.10;2.65;;;5.70;99.10;;;;;;5034725;28;20112;-70
2021/05/23 03:07:21;;;;;;;8.02;2.63;;;5.60;99.20;;;;;;5030131;28;20393;-70
2021/05/23 03:09:47;;;;;;;10.82;3.10;;;5.60;99.20;;;;;;5035147;28;20087;-70
2021/05/23 03:12:13;;;;;;;7.38;2.53;;;5.70;99.20;;;;;;5026574;28;20037;-70
2021/05/23 03:14:41;;;;;;;10.80;2.50;;;5.60;99.20;;;;;;5031874;28;20550;-70
2021/05/23 03:17:07;;;;;;;10.63;2.97;;;5.60;99.20;;;;;;5023438;28;20044;-70
2021/05/23 03:19:35;;;;;;;9.93;2.83;;;5.60;99.30;;;;;;5028309;28;20077;-70
2021/05/23 03:22:02;;;;;;;10.93;2.80;;;5.60;99.40;;;;;;5028178;28;20045;-69
2021/05/23 03:24:28;;;;;;;12.57;3.42;;;5.60;99.50;;;;;;5034833;28;20036;-69
2021/05/23 03:26:54;;;;;;;9.68;3.35;;;5.60;99.50;;;;;;5033554;28;20576;-69
2021/05/23 03:29:19;;;;;;;11.98;3.42;;;5.50;99.70;;;;;;5028977;28;20041;-69
2021/05/23 03:31:45;;;;;;;9.50;3.20;;;5.60;99.80;;;;;;5035136;28;20043;-69
2021/05/23 03:34:11;;;;;;;11.18;3.60;;;5.60;99.90;;;;;;5023997;28;20465;-69
2021/05/23 03:36:37;;;;;;;8.80;2.85;;;5.60;99.90;;;;;;5031444;28;20053;-69
2021/05/23 03:39:04;;;;;;;9.48;2.90;;;5.60;99.90;;;;;;5027917;28;20485;-69
2021/05/23 03:41:30;;;;;;;6.43;2.92;;;5.60;99.90;;;;;;5030378;28;20048;-70
2021/05/23 03:43:55;;;;;;;12.15;3.70;;;5.60;99.90;;;;;;5022564;28;20037;-70
2021/05/23 03:46:21;;;;;;;9.30;2.92;;;5.70;99.90;;;;;;5038806;28;20033;-69
2021/05/23 03:48:47;;;;;;;10.35;3.53;;;5.70;99.90;;;;;;5019790;28;20091;-70
2021/05/23 03:51:13;;;;;;;12.27;3.42;;;5.70;99.90;;;;;;5032900;28;20025;-69
2021/05/23 03:53:38;;;;;;;9.85;3.50;;;5.80;99.90;;;;;;5023648;28;20037;-69
2021/05/23 03:56:05;;;;;;;10.85;4.45;;;5.80;99.90;;;;;;5031227;28;20444;-69
2021/05/23 03:58:30;;;;;;;7.55;3.13;;;5.90;99.90;;;;;;5023655;28;20096;-70
2021/05/23 04:00:56;;;;;;;9.95;3.58;;;6.00;99.90;;;;;;5027315;28;20038;-70
2021/05/23 04:03:25;;;;;;;12.25;4.15;;;6.10;99.90;;;;;;5033344;28;20109;-69
2021/05/23 04:05:51;;;;;;;11.25;4.00;;;6.10;99.90;;;;;;5033031;28;20043;-69
2021/05/23 04:08:16;;;;;;;11.07;3.38;;;6.20;99.90;;;;;;5029899;28;20112;-69
2021/05/23 04:10:49;;;;;;;8.38;3.35;;;6.30;99.90;;;;;;5023622;28;20083;-69
2021/05/23 04:13:15;;;;;;;9.50;3.85;;;6.40;99.90;;;;;;5035163;28;20417;-69
2021/05/23 04:15:41;;;;;;;11.00;3.92;;;6.50;99.90;;;;;;5026319;28;20374;-69
2021/05/23 04:18:06;;;;;;;11.50;3.72;;;6.60;99.90;;;;;;5031095;28;20040;-69
2021/05/23 04:20:32;;;;;;;10.73;4.15;;;6.70;99.90;;;;;;5020372;28;20052;-70
2021/05/23 04:22:58;;;;;;;8.95;3.28;;;6.70;99.90;;;;;;5034373;28;20072;-70
2021/05/23 04:25:25;;;;;;;11.30;3.45;;;6.80;99.90;;;;;;5023954;28;20048;-70
2021/05/23 04:27:52;;;;;;;10.10;3.60;;;7.00;99.90;;;;;;5033713;28;20056;-70
2021/05/23 04:30:21;;;;;;;13.68;3.75;;;7.00;99.90;;;;;;5027885;28;20087;-70
2021/05/23 04:32:48;;;;;;;8.68;3.55;;;7.00;99.90;;;;;;5027787;28;20395;-70
2021/05/23 04:35:16;;;;;;;8.80;3.30;;;7.00;99.90;;;;;;5025301;28;20139;-70
2021/05/23 04:37:43;;;;;;;9.90;3.70;;;7.10;99.90;;;;;;5022057;28;20053;-70
2021/05/23 04:40:11;;;;;;;9.15;3.80;;;7.10;99.90;;;;;;5028617;28;20056;-70
2021/05/23 04:42:37;;;;;;;11.88;3.97;;;7.10;99.90;;;;;;5027808;28;20049;-70
2021/05/23 04:45:05;;;;;;;8.70;4.15;;;7.10;99.90;;;;;;5028704;28;20401;-70
2021/05/23 04:47:31;;;;;;;9.88;4.07;;;7.20;99.90;;;;;;5022044;28;20037;-70
2021/05/23 04:49:58;;;;;;;12.07;5.15;;;7.30;99.90;;;;;;5031747;28;20064;-70
2021/05/23 04:52:24;;;;;;;11.27;3.83;;;7.50;99.90;;;;;;5034734;28;20061;-70
2021/05/23 04:54:50;;;;;;;9.73;4.40;;;7.60;99.90;;;;;;5035761;28;20080;-70
2021/05/23 04:57:15;;;;;;;12.07;5.22;;;7.60;99.90;;;;;;5025945;28;20041;-70
2021/05/23 04:59:41;;;;;;;12.70;5.00;;;7.70;99.90;;;;;;5027641;28;20039;-70
2021/05/23 05:02:07;;;;;;;12.23;4.60;;;7.80;99.90;;;;;;5024578;28;20068;-70
2021/05/23 05:04:33;;;;;;;13.68;5.38;;;7.90;99.90;;;;;;5037371;28;20468;-70
2021/05/23 05:06:59;;;;;;;12.32;4.93;;;8.00;99.90;;;;;;5025811;28;20130;-70
2021/05/23 05:09:25;;;;;;;12.30;4.95;;;8.10;99.90;;;;;;5024308;28;20072;-70
2021/05/23 05:11:51;;;;;;;17.00;6.40;;;8.10;99.90;;;;;;5026153;28;20041;-70
2021/05/23 05:14:17;;;;;;;14.43;5.60;;;8.30;99.90;;;;;;5027960;28;20037;-70
2021/05/23 05:16:43;;;;;;;12.75;6.20;;;8.70;99.90;;;;;;5022498;28;20053;-70
2021/05/23 05:19:09;;;;;;;12.88;6.00;;;9.00;99.80;;;;;;5031844;28;20033;-70
2021/05/23 05:21:36;;;;;;;12.50;6.20;;;9.20;99.40;;;;;;5025638;28;20052;-70
2021/05/23 05:24:02;;;;;;;13.52;6.20;;;9.20;99.20;;;;;;5033006;28;20029;-70
2021/05/23 05:26:28;;;;;;;15.00;6.05;;;9.20;99.00;;;;;;5033404;28;20048;-70
2021/05/23 05:28:54;;;;;;;11.25;7.00;;;9.20;99.00;;;;;;5028182;28;20559;-70
2021/05/23 05:31:20;;;;;;;13.13;6.78;;;9.20;99.00;;;;;;5033757;28;20037;-70
2021/05/23 05:33:46;;;;;;;17.70;7.40;;;9.20;99.10;;;;;;5024658;28;20045;-70
2021/05/23 05:36:12;;;;;;;16.15;6.57;;;9.30;99.20;;;;;;5028872;28;20037;-70
2021/05/23 05:38:38;;;;;;;12.98;6.97;;;9.40;99.30;;;;;;5020413;28;20444;-70
2021/05/23 05:41:04;;;;;;;16.08;7.47;;;9.50;99.30;;;;;;5024929;28;20038;-70
2021/05/23 05:43:30;;;;;;;14.20;6.30;;;9.70;99.40;;;;;;5023383;28;20038;-70
2021/05/23 05:45:55;;;;;;;16.63;6.50;;;9.80;99.40;;;;;;5033652;28;20673;-71
2021/05/23 05:48:22;;;;;;;16.10;6.18;;;9.90;99.30;;;;;;5026248;28;20033;-71
2021/05/23 05:50:48;;;;;;;13.18;6.50;;;9.90;99.10;;;;;;5024232;28;20041;-70
2021/05/23 05:53:13;;;;;;;13.32;5.78;;;10.00;99.00;;;;;;5028076;28;20069;-70
2021/05/23 05:55:39;;;;;;;15.07;6.40;;;10.10;98.90;;;;;;5031990;28;20508;-71
2021/05/23 05:58:05;;;;;;;13.10;6.50;;;10.10;98.80;;;;;;5023610;28;20091;-70
2021/05/23 06:00:31;;;;;;;14.48;6.45;;;10.10;98.80;;;;;;5025579;28;20474;-70
2021/05/23 06:02:57;;;;;;;15.85;5.93;;;10.20;98.80;;;;;;5034393;28;20057;-70
2021/05/23 06:05:22;;;;;;;17.23;6.40;;;10.30;98.80;;;;;;5021937;28;20055;-70
2021/05/23 06:07:48;;;;;;;13.50;5.97;;;10.40;98.70;;;;;;5026037;28;20038;-70
2021/05/23 06:10:15;;;;;;;13.52;5.72;;;10.40;98.50;;;;;;5026056;28;20124;-70
2021/05/23 06:12:41;;;;;;;16.60;6.25;;;10.50;98.30;;;;;;5031553;28;20041;-70
2021/05/23 06:15:08;;;;;;;13.60;5.18;;;10.60;98.40;;;;;;5022272;28;20144;-70
2021/05/23 06:17:35;;;;;;;15.75;5.32;;;10.70;98.10;;;;;;5034895;28;20068;-70
2021/05/23 06:20:02;;;;;;;13.20;5.25;;;10.80;97.90;;;;;;5021517;28;20567;-70
2021/05/23 06:22:28;;;;;;;10.63;4.88;;;10.90;97.90;;;;;;5026293;28;20073;-70
2021/05/23 06:24:54;;;;;;;14.13;4.78;;;11.10;97.60;;;;;;5023346;28;20065;-70
2021/05/23 06:27:20;;;;;;;16.02;4.63;;;11.10;97.30;;;;;;5028003;28;20163;-70
2021/05/23 06:29:45;;;;;;;14.93;4.68;;;11.20;96.90;;;;;;5022330;28;20052;-70
2021/05/23 06:32:12;;;;;;;12.65;4.43;;;11.20;96.70;;;;;;5025410;28;20349;-70
2021/05/23 06:34:38;;;;;;;13.23;4.55;;;11.30;96.80;;;;;;5027032;28;20608;-71
2021/05/23 06:37:04;;;;;;;15.55;4.65;;;11.50;96.60;;;;;;5028439;28;20450;-70
2021/05/23 06:39:31;;;;;;;13.75;4.25;;;11.60;96.40;;;;;;5026712;28;20044;-70
2021/05/23 06:41:56;;;;;;;12.52;4.30;;;11.70;96.10;;;;;;5025819;28;20125;-70
2021/05/23 06:44:22;;;;;;;13.25;4.13;;;11.90;95.90;;;;;;5029611;28;20109;-70
2021/05/23 06:46:48;;;;;;;13.38;4.47;;;11.90;95.70;;;;;;5022463;28;20392;-70
2021/05/23 06:49:14;;;;;;;8.45;4.00;;;12.00;95.50;;;;;;5024761;28;20041;-70
2021/05/23 06:51:40;;;;;;;12.18;3.30;;;12.00;95.40;;;;;;5020260;28;20041;-70
2021/05/23 06:54:06;;;;;;;13.98;4.30;;;12.30;95.20;;;;;;5031809;28;20515;-70
2021/05/23 06:56:32;;;;;;;14.13;3.58;;;12.50;94.70;;;;;;5018518;28;20115;-70
2021/05/23 06:58:57;;;;;;;10.95;3.40;;;12.60;94.20;;;;;;5028121;28;20485;-70
2021/05/23 07:01:23;;;;;;;10.88;3.50;;;12.80;93.80;;;;;;5029825;28;20136;-70
2021/05/23 07:03:49;;;;;;;12.10;4.38;;;12.90;92.90;;;;;;5036302;28;20132;-70
2021/05/23 07:06:15;;;;;;;13.35;3.60;;;13.00;93.40;;;;;;5017480;28;20371;-70
2021/05/23 07:08:41;;;;;;;10.10;3.47;;;13.10;93.40;;;;;;5028756;28;20463;-70
2021/05/23 07:11:06;;;;;;;7.50;3.22;;;13.20;92.90;;;;;;5018819;28;20052;-70
2021/05/23 07:13:32;;;;;;;10.13;3.63;;;13.20;92.60;;;;;;5028451;28;20037;-70
2021/05/23 07:15:58;;;;;;;7.72;2.75;;;13.10;91.90;;;;;;5015971;28;20588;-70
2021/05/23 07:18:24;;;;;;;9.23;3.15;;;13.10;91.80;;;;;;5031638;28;20112;-70
2021/05/23 07:20:51;;;;;;;7.93;2.83;;;13.20;91.60;;;;;;5027570;28;20060;-70
2021/05/23 07:23:17;;;;;;;8.07;2.90;;;13.10;91.10;;;;;;5019135;28;20053;-70
2021/05/23 07:25:43;;;;;;;6.75;2.33;;;13.10;90.70;;;;;;5023696;28;20026;-70
2021/05/23 07:28:09;;;;;;;7.18;2.20;;;13.20;90.60;;;;;;5025587;28;20153;-70
2021/05/23 07:30:35;;;;;;;5.15;2.13;;;13.20;90.30;;;;;;5028034;28;20567;-70
2021/05/23 07:33:01;;;;;;;7.03;2.65;;;13.20;88.90;;;;;;5026175;28;20045;-70
2021/05/23 07:35:27;;;;;;;8.82;3.30;;;13.30;88.30;;;;;;5027004;28;20478;-70
2021/05/23 07:37:53;;;;;;;8.00;3.47;;;13.30;89.10;;;;;;5018821;28;20048;-70
2021/05/23 07:40:19;;;;;;;7.07;3.97;;;13.20;89.70;;;;;;5027634;28;20037;-70
2021/05/23 07:42:45;;;;;;;7.30;3.42;;;13.10;90.50;;;;;;5021487;28;20120;-70
2021/05/23 07:45:12;;;;;;;8.45;3.10;;;13.10;90.50;;;;;;5029938;28;20108;-70
2021/05/23 07:47:38;;;;;;;8.30;4.15;;;13.00;90.50;;;;;;5024155;28;20475;-70
2021/05/23 07:50:05;;;;;;;9.13;4.38;;;12.90;91.00;;;;;;5026992;28;20477;-70
2021/05/23 07:52:31;;;;;;;8.60;4.35;;;12.90;91.60;;;;;;5021322;28;20045;-70
2021/05/23 07:54:59;;;;;;;12.95;5.40;;;12.90;91.90;;;;;;5042644;28;20076;-70
2021/05/23 07:57:25;;;;;;;10.05;5.85;;;13.00;91.80;;;;;;5029609;28;20037;-71
2021/05/23 07:59:52;;;;;;;11.75;6.10;;;13.00;91.80;;;;;;5027106;28;20037;-70
2021/05/23 08:02:18;;;;;;;11.02;6.22;;;13.00;91.90;;;;;;5031967;28;20064;-70
2021/05/23 08:04:44;;;;;;;10.80;6.07;;;13.00;91.80;;;;;;5021000;28;20034;-70
2021/05/23 08:07:10;;;;;;;12.02;6.68;;;13.00;92.50;;;;;;5028449;28;20051;-70
2021/05/23 08:09:35;;;;;;;11.65;7.60;;;13.10;92.30;;;;;;5025213;28;20447;-70
2021/05/23 08:12:02;;;;;;;11.00;7.05;;;13.10;92.30;;;;;;5039791;28;20045;-70
2021/05/23 08:14:27;;;;;;;9.82;7.72;;;13.10;92.20;;;;;;5026592;28;20044;-70
2021/05/23 08:16:54;;;;;;;10.27;6.88;;;13.10;92.40;;;;;;5032170;28;20441;-70
2021/05/23 08:19:20;;;;;;;10.35;6.95;;;13.30;92.60;;;;;;5024141;28;20057;-70
2021/05/23 08:21:46;;;;;;;11.70;8.23;;;13.30;92.40;;;;;;5039438;28;20056;-70
2021/05/23 08:24:12;;;;;;;11.80;8.27;;;13.50;92.40;;;;;;5022593;28;20065;-70
2021/05/23 08:26:38;;;;;;;8.88;7.43;;;13.60;92.80;;;;;;5029463;28;20029;-70
2021/05/23 08:29:04;;;;;;;8.43;6.75;;;13.80;92.40;;;;;;5034495;28;20050;-70
2021/05/23 08:31:31;;;;;;;8.98;6.40;;;13.90;91.90;;;;;;5029944;28;20046;-70
2021/05/23 08:33:57;;;;;;;10.30;6.68;;;14.10;91.90;;;;;;5025477;28;20033;-70
2021/05/23 08:36:23;;;;;;;6.68;5.60;;;14.40;92.00;;;;;;5026246;28;20393;-70
2021/05/23 08:38:49;;;;;;;7.05;5.63;;;14.60;91.60;;;;;;5041825;28;20385;-70
2021/05/23 08:41:19;;;;;;;8.88;5.28;;;14.80;91.50;;;;;;5021474;28;20119;-70
2021/05/23 08:43:48;;;;;;;7.28;5.05;;;14.90;90.80;;;;;;5029695;28;20046;-70
2021/05/23 08:46:14;;;;;;;8.85;6.03;;;15.00;90.70;;;;;;5029087;28;20390;-70
2021/05/23 08:48:41;;;;;;;8.35;6.40;;;15.00;90.00;;;;;;5031725;28;20057;-70
2021/05/23 08:51:08;;;;;;;12.25;6.90;;;14.90;90.40;;;;;;5020627;28;20600;-70
2021/05/23 08:53:34;;;;;;;10.90;7.90;;;15.00;90.60;;;;;;5035842;28;20102;-70
2021/05/23 08:56:00;;;;;;;10.45;8.57;;;15.20;90.50;;;;;;5033119;28;20343;-70
2021/05/23 08:58:27;;;;;;;11.15;8.77;;;15.20;89.70;;;;;;5028227;28;20047;-70
2021/05/23 09:00:53;;;;;;;9.88;8.88;;;15.10;89.20;;;;;;5021686;28;20038;-70
2021/05/23 09:03:19;;;;;;;10.52;8.23;;;14.90;88.80;;;;;;5038157;28;20048;-70
2021/05/23 09:05:50;;;;;;;11.82;8.50;;;14.70;89.20;;;;;;5031164;28;20041;-70
2021/05/23 09:08:18;;;;;;;11.63;8.70;;;14.70;89.60;;;;;;5030774;28;20041;-70
2021/05/23 09:10:46;;;;;;;10.30;8.90;;;14.70;90.40;;;;;;5022026;28;20042;-70
2021/05/23 09:13:14;;;;;;;11.00;9.48;;;14.60;90.40;;;;;;5034191;28;20064;-70
2021/05/23 09:15:40;;;;;;;10.82;9.32;;;14.60;90.20;;;;;;5022614;28;20041;-70
2021/05/23 09:18:12;;;;;;;10.95;9.13;;;14.50;90.30;;;;;;5029284;28;20544;-70
2021/05/23 09:20:41;;;;;;;11.10;9.25;;;14.50;90.50;;;;;;5028857;28;21175;-70
2021/05/23 09:23:19;;;;;;;10.52;9.43;;;14.50;90.40;;;;;;5028295;28;20045;-70
2021/05/23 09:25:44;;;;;;;9.20;8.30;;;14.50;90.60;;;;;;5030315;28;20045;-70
2021/05/23 09:28:10;;;;;;;8.05;7.18;;;14.60;90.90;;;;;;5020668;28;20127;-70
2021/05/23 09:30:39;;;;;;;7.47;5.93;;;14.70;90.40;;;;;;5037832;28;21063;-70
2021/05/23 09:33:06;;;;;;;6.82;6.20;;;14.90;90.10;;;;;;5022940;28;20513;-70
2021/05/23 09:35:43;;;;;;;7.53;6.82;;;15.10;89.90;;;;;;5030376;28;20032;-70
2021/05/23 09:38:09;;;;;;;8.23;7.45;;;15.20;89.00;;;;;;5023557;28;20072;-70
2021/05/23 09:40:38;;;;;;;8.65;7.75;;;15.30;89.40;;;;;;5038854;28;20048;-70
2021/05/23 09:43:06;;;;;;;8.65;7.85;;;15.40;89.20;;;;;;5030211;28;20041;-71
2021/05/23 09:45:41;;;;;;;9.05;7.75;;;15.60;89.70;;;;;;5023666;28;20050;-68
2021/05/23 09:48:08;;;;;;;8.25;7.50;;;15.80;88.40;;;;;;5024085;28;20115;-69
2021/05/23 09:50:39;;;;;;;7.85;7.03;;;15.90;88.60;;;;;;5033043;28;20042;-69
2021/05/23 09:53:24;;;;;;;7.28;6.68;;;16.10;88.50;;;;;;5023301;28;20037;-69
2021/05/23 09:55:55;;;;;;;6.35;5.75;;;16.30;86.20;;;;;;5031344;28;20037;-69
2021/05/23 09:58:23;;;;;;;5.90;5.28;;;16.40;85.50;;;;;;5025767;28;20037;-69
2021/05/23 10:00:49;;;;;;;4.38;3.97;;;16.40;85.50;;;;;;5030673;28;20046;-70
2021/05/23 10:03:32;;;;;;;3.20;2.90;;;16.60;87.00;;;;;;5025790;28;20041;-69
2021/05/23 10:05:59;;;;;;;2.80;2.60;;;16.90;83.30;;;;;;5032268;28;20069;-70
2021/05/23 10:08:26;;;;;;;2.60;2.38;;;16.90;82.50;;;;;;5021756;28;20037;-69
2021/05/23 10:10:53;;;;;;;3.13;2.30;;;17.00;81.10;;;;;;5033659;28;20041;-70
2021/05/23 10:13:20;;;;;;;2.50;2.17;;;16.90;78.40;;;;;;5031966;28;20163;-71
2021/05/23 10:15:46;;;;;;;3.47;2.30;;;16.60;78.20;;;;;;5029618;28;20049;-70
2021/05/23 10:18:12;;;;;;;3.75;1.95;;;16.50;78.70;;;;;;5022523;28;20037;-70
2021/05/23 10:20:38;;;;;;;1.75;0.30;;;16.20;78.70;;;;;;5029299;28;20228;-70
2021/05/23 10:23:30;;;;;;;1.38;0.10;;;15.70;74.30;;;;;;5031139;28;20037;-70
2021/05/23 10:26:00;;;;;;;0.47;0.10;;;15.00;72.50;;;;;;5028420;28;20068;-70
2021/05/23 10:28:27;;;;;;;0.28;0.20;;;14.20;76.00;;;;;;5017507;28;20072;-70
2021/05/23 10:30:56;;;;;;;0.90;0.50;;;13.50;79.30;;;;;;5030308;28;20508;-70
2021/05/23 10:33:23;;;;;;;1.88;0.65;;;13.00;82.40;;;;;;5031701;28;20045;-70
2021/05/23 10:35:51;;;;;;;0.40;0.30;;;12.70;85.10;;;;;;5025195;28;20037;-70
2021/05/23 10:38:21;;;;;;;1.40;0.80;;;12.60;86.80;;;;;;5032441;28;20080;-70
2021/05/23 10:40:53;;;;;;;3.00;0.32;;;12.40;87.80;;;;;;5029239;28;20052;-70
2021/05/23 10:43:27;;;;;;;1.30;0.60;;;12.30;88.60;;;;;;5031769;28;20053;-70
2021/05/23 10:46:12;;;;;;;0.65;0.32;;;12.30;89.30;;;;;;5023898;28;20041;-70
2021/05/23 10:48:39;;;;;;;0.70;0.30;;;12.30;89.80;;;;;;5028573;28;20037;-70
2021/05/23 10:51:14;;;;;;;1.50;0.25;;;12.30;90.20;;;;;;5018888;28;20409;-70
2021/05/23 10:53:40;;;;;;;0.50;0.32;;;12.40;89.70;;;;;;5033097;28;20493;-70
2021/05/23 10:56:16;;;;;;;0.70;0.40;;;12.50;90.10;;;;;;5017367;28;20052;-70
2021/05/23 10:58:54;;;;;;;0.88;0.35;;;12.60;90.00;;;;;;5026466;28;20048;-70
2021/05/23 11:01:39;;;;;;;0.93;0.63;;;12.60;90.40;;;;;;5022771;28;20033;-70
2021/05/23 11:04:10;;;;;;;2.13;0.77;;;12.50;91.00;;;;;;5038230;28;20056;-68
2021/05/23 11:06:36;;;;;;;0.80;0.50;;;12.40;91.60;;;;;;5019744;28;20046;-67
2021/05/23 11:09:09;;;;;;;1.38;0.70;;;12.30;91.90;;;;;;5029847;28;20040;-68
2021/05/23 11:11:35;;;;;;;1.80;0.70;;;12.10;92.60;;;;;;5021773;28;20040;-67
2021/05/23 11:14:18;;;;;;;1.80;0.70;;;11.90;92.90;;;;;;5040890;28;20041;-68
2021/05/23 11:16:46;;;;;;;1.05;0.95;;;11.80;93.50;;;;;;5021881;28;20076;-68
2021/05/23 11:19:12;;;;;;;1.38;0.90;;;11.80;94.10;;;;;;5028834;28;20041;-67
2021/05/23 11:21:42;;;;;;;2.13;1.17;;;11.80;94.20;;;;;;5022370;28;20038;-68
2021/05/23 11:24:09;;;;;;;2.40;1.08;;;11.80;94.20;;;;;;5040440;28;20048;-68
2021/05/23 11:26:37;;;;;;;2.35;0.88;;;11.80;94.40;;;;;;5029914;28;20037;-68
2021/05/23 11:29:04;;;;;;;2.92;0.88;;;11.90;94.80;;;;;;5031618;28;20493;-68
2021/05/23 11:31:31;;;;;;;3.83;1.50;;;12.10;94.90;;;;;;5028468;28;20107;-68
2021/05/23 11:33:58;;;;;;;3.58;1.42;;;12.30;94.90;;;;;;5037420;28;20061;-67
2021/05/23 11:36:26;;;;;;;2.75;1.05;;;12.50;94.70;;;;;;5019263;28;20036;-68
2021/05/23 11:38:57;;;;;;;2.55;1.20;;;12.60;94.30;;;;;;5034511;28;20164;-67
2021/05/23 11:41:41;;;;;;;1.90;1.30;;;12.60;93.90;;;;;;5024733;28;20060;-67
2021/05/23 11:44:09;;;;;;;1.95;1.08;;;12.70;94.40;;;;;;5030397;28;20052;-72
2021/05/23 11:46:37;;;;;;;1.33;0.80;;;12.60;93.80;;;;;;5025198;28;20545;-72
2021/05/23 11:49:03;;;;;;;1.77;1.00;;;12.40;92.90;;;;;;5034243;28;20525;-73
2021/05/23 11:51:31;;;;;;;1.98;0.80;;;12.40;93.50;;;;;;5026803;28;20045;-71
2021/05/23 11:54:05;;;;;;;1.48;0.60;;;12.40;93.40;;;;;;5033431;28;20430;-71
2021/05/23 11:56:32;;;;;;;;;;;12.40;93.00;;;;;;5027454;28;20040;-72
2021/05/23 11:59:00;;;;;;;2.15;0.90;;;12.30;93.00;;;;;;5025381;28;19917;-72
2021/05/23 12:01:31;;;;;;;1.70;0.93;;;12.20;93.50;;;;;;5029965;28;20119;-72
2021/05/23 12:04:06;;;;;;;1.58;1.10;;;12.10;93.90;;;;;;5029393;28;20120;-72
2021/05/23 12:06:37;;;;;;;;;;;12.20;94.70;;;;;;5030900;28;20480;-71
2021/05/23 12:09:11;;;;;;;2.15;1.30;;;12.20;94.80;;;;;;5024826;28;20210;-72
2021/05/23 12:11:50;;;;;;;4.50;3.45;;;12.30;95.00;;;;;;5030634;28;20452;-72
2021/05/23 12:14:31;;;;;;;2.63;1.52;;;12.50;95.00;;;;;;5030989;28;20060;-72
2021/05/23 12:16:59;;;;;;;2.85;1.50;;;12.60;94.90;;;;;;5034134;28;20037;-72
2021/05/23 12:19:47;;;;;;;4.68;1.50;;;12.70;94.70;;;;;;5021728;28;20041;-72
2021/05/23 12:22:15;;;;;;;3.22;2.15;;;12.70;94.30;;;;;;5034603;28;20033;-72
2021/05/23 12:24:42;;;;;;;2.95;2.40;;;12.60;94.00;;;;;;5036089;28;20040;-72
2021/05/23 12:27:07;;;;;;;3.67;1.77;;;12.50;94.20;;;;;;5031030;28;20071;-71
2021/05/23 12:29:33;;;;;;;2.30;1.70;;;12.60;94.40;;;;;;5021071;28;20144;-71
2021/05/23 12:32:06;;;;;;;3.75;1.95;;;12.60;94.50;;;;;;5034258;28;20072;-72
2021/05/23 12:34:32;;;;;;;4.38;1.85;;;12.70;94.50;;;;;;5027415;28;20132;-72
2021/05/23 12:37:01;;;;;;;3.10;1.80;;;12.80;94.60;;;;;;5026884;28;20069;-72
2021/05/23 12:39:27;;;;;;;3.38;2.00;;;13.00;94.20;;;;;;5022994;28;20145;-72
2021/05/23 12:41:54;;;;;;;2.90;1.30;;;13.10;94.00;;;;;;5035320;28;20049;-72
2021/05/23 12:44:23;;;;;;;3.03;1.40;;;13.10;93.40;;;;;;5029995;28;20034;-72
2021/05/23 12:46:50;;;;;;;2.38;1.30;;;13.20;93.00;;;;;;5033227;28;20091;-72
2021/05/23 12:49:24;;;;;;;2.88;1.13;;;13.30;93.00;;;;;;5026159;28;20515;-72
2021/05/23 12:51:52;;;;;;;4.00;1.00;;;13.40;92.70;;;;;;5033289;28;20037;-72